Time;durP1;ratioP1;P1;durP2;ratioP2;P2;SDS_P1;SDS_P2;PMS_P1;PMS_P2;Temp;Humidity;BMP_temperature;BMP_pressure;BME280_temperature;BME280_humidity;BME280_pressure;Samples;Min_cycle;Max_cycle;Signal;HPM_P1;HPM_P2
2022/08/16 00:01:22;;;;;;;0.00;0.00;;;;;;;;;;5063536;28;20411;-70
2022/08/16 00:03:48;;;;;;;0.00;0.00;;;;;;;;;;5069961;28;20220;-68
2022/08/16 00:06:15;;;;;;;0.00;0.00;;;;;;;;;;5062893;28;20239;-69
2022/08/16 00:08:41;;;;;;;0.00;0.00;;;;;;;;;;5070337;28;20204;-70
2022/08/16 00:11:08;;;;;;;0.00;0.00;;;;;;;;;;5062183;28;20306;-70
2022/08/16 00:13:36;;;;;;;0.00;0.00;;;;;;;;;;5071351;28;20218;-69
2022/08/16 00:16:03;;;;;;;0.00;0.00;;;;;;;;;;5061046;28;20572;-69
2022/08/16 00:18:29;;;;;;;0.00;0.00;;;;;;;;;;5071772;28;20228;-70
2022/08/16 00:20:56;;;;;;;0.00;0.00;;;;;;;;;;5060500;28;20255;-70
2022/08/16 00:23:22;;;;;;;0.00;0.00;;;;;;;;;;5072832;28;20518;-69
2022/08/16 00:25:48;;;;;;;0.00;0.00;;;;;;;;;;5059415;28;20243;-70
2022/08/16 00:28:15;;;;;;;0.00;0.00;;;;;;;;;;5073611;28;20211;-69
2022/08/16 00:30:43;;;;;;;0.00;0.00;;;;;;;;;;5058371;28;20273;-70
2022/08/16 00:33:09;;;;;;;0.00;0.00;;;;;;;;;;5074364;28;20283;-70
2022/08/16 00:35:38;;;;;;;0.00;0.00;;;;;;;;;;5057485;28;20299;-70
2022/08/16 00:38:05;;;;;;;0.10;0.10;;;;;;;;;;5074820;28;20275;-70
2022/08/16 00:40:33;;;;;;;0.00;0.00;;;;;;;;;;5056924;28;20705;-70
2022/08/16 00:42:59;;;;;;;0.00;0.00;;;;;;;;;;5075374;28;20310;-70
2022/08/16 00:45:31;;;;;;;0.00;0.00;;;;;;;;;;5056378;28;20456;-70
2022/08/16 00:47:59;;;;;;;0.00;0.00;;;;;;;;;;5075434;28;20402;-70
2022/08/16 00:50:26;;;;;;;0.00;0.00;;;;;;;;;;5055786;28;20314;-70
2022/08/16 00:52:53;;;;;;;0.00;0.00;;;;;;;;;;5075866;28;20214;-70
2022/08/16 00:55:20;;;;;;;0.00;0.00;;;;;;;;;;5055068;28;20222;-69
2022/08/16 00:57:49;;;;;;;0.00;0.00;;;;;;;;;;5076855;28;20231;-70
2022/08/16 01:00:16;;;;;;;0.00;0.00;;;;;;;;;;5054138;28;20270;-69
2022/08/16 01:02:43;;;;;;;0.00;0.00;;;;;;;;;;5077149;28;20213;-70
2022/08/16 01:05:10;;;;;;;0.00;0.00;;;;;;;;;;5053374;28;20204;-69
2022/08/16 01:07:37;;;;;;;0.00;0.00;;;;;;;;;;5077114;28;20208;-70
2022/08/16 01:10:04;;;;;;;0.00;0.00;;;;;;;;;;5063207;28;20287;-69
2022/08/16 01:12:30;;;;;;;0.00;0.00;;;;;;;;;;5068498;28;20276;-70
2022/08/16 01:14:58;;;;;;;0.00;0.00;;;;;;;;;;5063278;28;20204;-70
2022/08/16 01:17:26;;;;;;;0.00;0.00;;;;;;;;;;5068480;28;20239;-69
2022/08/16 01:19:55;;;;;;;0.00;0.00;;;;;;;;;;5063131;28;20220;-70
2022/08/16 01:22:28;;;;;;;0.00;0.00;;;;;;;;;;5068401;28;20320;-70
2022/08/16 01:24:58;;;;;;;0.10;0.10;;;;;;;;;;5063174;28;20263;-70
2022/08/16 01:27:27;;;;;;;0.00;0.00;;;;;;;;;;5068289;28;20574;-69
2022/08/16 01:29:56;;;;;;;0.00;0.00;;;;;;;;;;5062716;28;20258;-70
2022/08/16 01:32:22;;;;;;;0.00;0.00;;;;;;;;;;5068015;28;20315;-70
2022/08/16 01:34:48;;;;;;;0.10;0.10;;;;;;;;;;5062828;28;20227;-70
2022/08/16 01:37:15;;;;;;;0.00;0.00;;;;;;;;;;5067715;28;20249;-70
2022/08/16 01:39:41;;;;;;;0.00;0.00;;;;;;;;;;5062273;28;20204;-70
2022/08/16 01:42:10;;;;;;;0.00;0.00;;;;;;;;;;5067539;28;20249;-69
2022/08/16 01:44:36;;;;;;;0.00;0.00;;;;;;;;;;5061930;28;20206;-69
2022/08/16 01:47:03;;;;;;;0.00;0.00;;;;;;;;;;5067149;28;20431;-70
2022/08/16 01:49:32;;;;;;;0.10;0.10;;;;;;;;;;5062223;28;20444;-70
2022/08/16 01:51:59;;;;;;;0.00;0.00;;;;;;;;;;5066404;28;20390;-69
2022/08/16 01:54:26;;;;;;;0.00;0.00;;;;;;;;;;5062631;28;20398;-70
2022/08/16 01:56:53;;;;;;;0.00;0.00;;;;;;;;;;5065393;28;20266;-70
2022/08/16 01:59:21;;;;;;;0.00;0.00;;;;;;;;;;5063531;28;20305;-70
2022/08/16 02:01:49;;;;;;;0.00;0.00;;;;;;;;;;5065060;28;20241;-70
2022/08/16 02:04:15;;;;;;;0.00;0.00;;;;;;;;;;5064370;28;20211;-70
2022/08/16 02:06:42;;;;;;;0.00;0.00;;;;;;;;;;5064362;28;20306;-70
2022/08/16 02:09:09;;;;;;;0.00;0.00;;;;;;;;;;5065196;28;20204;-70
2022/08/16 02:11:36;;;;;;;0.00;0.00;;;;;;;;;;5063869;28;20318;-70
2022/08/16 02:14:03;;;;;;;0.05;0.05;;;;;;;;;;5065623;28;20266;-69
2022/08/16 02:16:31;;;;;;;0.00;0.00;;;;;;;;;;5062724;28;20243;-70
2022/08/16 02:18:58;;;;;;;0.10;0.10;;;;;;;;;;5068162;28;20388;-69
2022/08/16 02:21:24;;;;;;;0.00;0.00;;;;;;;;;;5066096;28;20239;-70
2022/08/16 02:23:51;;;;;;;0.00;0.00;;;;;;;;;;5071499;28;20208;-70
2022/08/16 02:26:17;;;;;;;0.03;0.03;;;;;;;;;;5065589;28;20411;-69
2022/08/16 02:28:43;;;;;;;0.00;0.00;;;;;;;;;;5072718;28;20205;-70
2022/08/16 02:31:11;;;;;;;0.00;0.00;;;;;;;;;;5064079;28;20306;-69
2022/08/16 02:33:39;;;;;;;0.00;0.00;;;;;;;;;;5073212;28;20200;-70
2022/08/16 02:36:07;;;;;;;0.10;0.10;;;;;;;;;;5063314;28;20267;-70
2022/08/16 02:38:33;;;;;;;0.00;0.00;;;;;;;;;;5073101;28;20247;-70
2022/08/16 02:41:00;;;;;;;0.00;0.00;;;;;;;;;;5062470;28;20289;-69
2022/08/16 02:43:28;;;;;;;0.10;0.10;;;;;;;;;;5073803;28;20204;-69
2022/08/16 02:45:55;;;;;;;0.00;0.00;;;;;;;;;;5061964;28;20247;-70
2022/08/16 02:48:21;;;;;;;0.00;0.00;;;;;;;;;;5074728;28;20231;-69
2022/08/16 02:50:50;;;;;;;0.00;0.00;;;;;;;;;;5061188;28;20429;-69
2022/08/16 02:53:16;;;;;;;0.00;0.00;;;;;;;;;;5075468;28;20208;-69
2022/08/16 02:55:43;;;;;;;0.00;0.00;;;;;;;;;;5060404;28;20250;-70
2022/08/16 02:58:10;;;;;;;0.00;0.00;;;;;;;;;;5076055;28;20231;-70
2022/08/16 03:00:37;;;;;;;0.00;0.00;;;;;;;;;;5059551;28;20242;-71
2022/08/16 03:03:03;;;;;;;0.10;0.10;;;;;;;;;;5076568;28;20204;-71
2022/08/16 03:05:30;;;;;;;0.00;0.00;;;;;;;;;;5058076;28;20239;-70
2022/08/16 03:07:58;;;;;;;0.00;0.00;;;;;;;;;;5077415;28;20204;-70
2022/08/16 03:10:24;;;;;;;0.00;0.00;;;;;;;;;;5057461;28;22529;-70
2022/08/16 03:12:51;;;;;;;0.00;0.00;;;;;;;;;;5078199;28;20279;-71
2022/08/16 03:15:18;;;;;;;0.00;0.00;;;;;;;;;;5056992;28;20283;-69
2022/08/16 03:17:44;;;;;;;0.00;0.00;;;;;;;;;;5079127;28;20234;-70
2022/08/16 03:20:12;;;;;;;0.10;0.10;;;;;;;;;;5055488;28;20267;-69
2022/08/16 03:22:38;;;;;;;0.00;0.00;;;;;;;;;;5079944;28;20204;-70
2022/08/16 03:25:07;;;;;;;0.00;0.00;;;;;;;;;;5063736;28;20207;-68
2022/08/16 03:27:34;;;;;;;0.00;0.00;;;;;;;;;;5080108;28;20216;-70
2022/08/16 03:30:01;;;;;;;0.00;0.00;;;;;;;;;;5064054;28;20224;-70
2022/08/16 03:32:28;;;;;;;0.00;0.00;;;;;;;;;;5069858;28;20303;-70
2022/08/16 03:34:56;;;;;;;0.00;0.00;;;;;;;;;;5064811;28;20508;-70
2022/08/16 03:37:23;;;;;;;0.00;0.00;;;;;;;;;;5070237;28;20282;-70
2022/08/16 03:39:49;;;;;;;0.00;0.00;;;;;;;;;;5064986;28;20204;-69
2022/08/16 03:42:17;;;;;;;0.00;0.00;;;;;;;;;;5070180;28;20245;-70
2022/08/16 03:44:43;;;;;;;0.10;0.10;;;;;;;;;;5064968;28;20359;-69
2022/08/16 03:47:09;;;;;;;0.00;0.00;;;;;;;;;;5070186;28;20307;-70
2022/08/16 03:49:36;;;;;;;0.00;0.00;;;;;;;;;;5064515;28;20204;-70
2022/08/16 03:52:02;;;;;;;0.00;0.00;;;;;;;;;;5069651;28;20254;-69
2022/08/16 03:54:28;;;;;;;0.00;0.00;;;;;;;;;;5065164;28;20273;-70
2022/08/16 03:56:55;;;;;;;0.00;0.00;;;;;;;;;;5068535;28;20250;-69
2022/08/16 03:59:22;;;;;;;0.00;0.00;;;;;;;;;;5065839;28;20212;-70
2022/08/16 04:01:49;;;;;;;0.00;0.00;;;;;;;;;;5067207;28;20239;-69
2022/08/16 04:04:15;;;;;;;0.00;0.00;;;;;;;;;;5066759;28;20282;-70
2022/08/16 04:06:41;;;;;;;0.00;0.00;;;;;;;;;;5066269;28;20268;-70
2022/08/16 04:09:08;;;;;;;0.00;0.00;;;;;;;;;;5067451;28;20275;-70
2022/08/16 04:11:35;;;;;;;0.00;0.00;;;;;;;;;;5065451;28;20259;-70
2022/08/16 04:14:01;;;;;;;0.00;0.00;;;;;;;;;;5068284;28;20235;-70
2022/08/16 04:16:31;;;;;;;0.00;0.00;;;;;;;;;;5064626;28;20581;-70
2022/08/16 04:18:57;;;;;;;0.00;0.00;;;;;;;;;;5068856;28;20278;-69
2022/08/16 04:21:24;;;;;;;0.00;0.00;;;;;;;;;;5063821;28;20446;-70
2022/08/16 04:23:50;;;;;;;0.00;0.00;;;;;;;;;;5069060;28;20242;-69
2022/08/16 04:26:17;;;;;;;0.03;0.03;;;;;;;;;;5062829;28;20242;-69
2022/08/16 04:28:43;;;;;;;0.00;0.00;;;;;;;;;;5069976;28;20223;-69
2022/08/16 04:31:10;;;;;;;0.00;0.00;;;;;;;;;;5061707;28;20302;-69
2022/08/16 04:33:38;;;;;;;0.00;0.00;;;;;;;;;;5071028;28;20271;-70
2022/08/16 04:36:04;;;;;;;0.00;0.00;;;;;;;;;;5061292;28;20569;-70
2022/08/16 04:38:31;;;;;;;0.00;0.00;;;;;;;;;;5071218;28;20262;-70
2022/08/16 04:40:57;;;;;;;0.00;0.00;;;;;;;;;;5060192;28;20253;-69
2022/08/16 04:43:23;;;;;;;0.00;0.00;;;;;;;;;;5071663;28;20279;-70
2022/08/16 04:45:50;;;;;;;0.00;0.00;;;;;;;;;;5059333;28;20514;-70
2022/08/16 04:48:16;;;;;;;0.00;0.00;;;;;;;;;;5073066;28;20405;-69
2022/08/16 04:50:44;;;;;;;0.00;0.00;;;;;;;;;;5057871;28;20281;-70
2022/08/16 04:53:10;;;;;;;0.00;0.00;;;;;;;;;;5073697;28;20289;-70
2022/08/16 04:55:37;;;;;;;0.10;0.10;;;;;;;;;;5057117;28;20304;-70
2022/08/16 04:58:07;;;;;;;0.00;0.00;;;;;;;;;;5074365;28;20219;-71
2022/08/16 05:00:34;;;;;;;0.00;0.00;;;;;;;;;;5056686;28;20296;-70
2022/08/16 05:03:01;;;;;;;0.00;0.00;;;;;;;;;;5074622;28;20204;-69
2022/08/16 05:05:27;;;;;;;0.00;0.00;;;;;;;;;;5056022;28;20242;-69
2022/08/16 05:07:55;;;;;;;0.00;0.00;;;;;;;;;;5075340;28;20208;-70
2022/08/16 05:10:21;;;;;;;0.00;0.00;;;;;;;;;;5055206;28;20460;-70
2022/08/16 05:12:48;;;;;;;0.00;0.00;;;;;;;;;;5076383;28;20208;-70
2022/08/16 05:15:14;;;;;;;0.00;0.00;;;;;;;;;;5054103;28;20208;-70
2022/08/16 05:17:41;;;;;;;0.08;0.08;;;;;;;;;;5077305;28;20234;-70
2022/08/16 05:20:08;;;;;;;0.10;0.10;;;;;;;;;;5052966;28;20240;-70
2022/08/16 05:22:37;;;;;;;0.00;0.00;;;;;;;;;;5077920;28;20322;-70
2022/08/16 05:25:09;;;;;;;0.10;0.10;;;;;;;;;;5063077;28;20238;-70
2022/08/16 05:27:35;;;;;;;0.00;0.00;;;;;;;;;;5051469;28;20285;-70
2022/08/16 05:30:02;;;;;;;0.00;0.00;;;;;;;;;;5062780;28;20208;-70
2022/08/16 05:32:28;;;;;;;0.00;0.00;;;;;;;;;;5067933;28;20309;-69
2022/08/16 05:34:55;;;;;;;0.10;0.10;;;;;;;;;;5062421;28;20212;-69
2022/08/16 05:37:23;;;;;;;0.00;0.00;;;;;;;;;;5068133;28;20609;-69
2022/08/16 05:39:49;;;;;;;0.10;0.10;;;;;;;;;;5063063;28;20210;-69
2022/08/16 05:42:17;;;;;;;0.00;0.00;;;;;;;;;;5067944;28;20237;-70
2022/08/16 05:44:43;;;;;;;0.00;0.00;;;;;;;;;;5062568;28;20203;-70
2022/08/16 05:47:09;;;;;;;0.00;0.00;;;;;;;;;;5067952;28;20242;-70
2022/08/16 05:49:36;;;;;;;0.10;0.10;;;;;;;;;;5062710;28;20278;-71
2022/08/16 05:52:02;;;;;;;0.00;0.00;;;;;;;;;;5067250;28;20497;-70
2022/08/16 05:54:29;;;;;;;0.00;0.00;;;;;;;;;;5061806;28;20278;-70
2022/08/16 05:56:56;;;;;;;0.00;0.00;;;;;;;;;;5065726;28;20243;-70
2022/08/16 05:59:25;;;;;;;0.00;0.00;;;;;;;;;;5063442;28;20207;-70
2022/08/16 06:01:51;;;;;;;0.00;0.00;;;;;;;;;;5065013;28;20272;-70
2022/08/16 06:04:18;;;;;;;0.00;0.00;;;;;;;;;;5064103;28;20207;-69
2022/08/16 06:06:45;;;;;;;0.00;0.00;;;;;;;;;;5064671;28;20238;-69
2022/08/16 06:09:12;;;;;;;0.00;0.00;;;;;;;;;;5064540;28;20238;-69
2022/08/16 06:11:38;;;;;;;0.00;0.00;;;;;;;;;;5063097;28;20243;-70
2022/08/16 06:14:05;;;;;;;0.00;0.00;;;;;;;;;;5065789;28;20222;-70
2022/08/16 06:16:33;;;;;;;0.00;0.00;;;;;;;;;;5062805;28;20242;-69
2022/08/16 06:18:59;;;;;;;0.00;0.00;;;;;;;;;;5066461;28;20357;-71
2022/08/16 06:21:25;;;;;;;0.00;0.00;;;;;;;;;;5061900;28;20298;-70
2022/08/16 06:23:52;;;;;;;0.00;0.00;;;;;;;;;;5067092;28;20195;-70
2022/08/16 06:26:18;;;;;;;0.00;0.00;;;;;;;;;;5061162;28;20311;-69
2022/08/16 06:28:45;;;;;;;0.00;0.00;;;;;;;;;;5067833;28;20214;-70
2022/08/16 06:31:12;;;;;;;0.00;0.00;;;;;;;;;;5060003;28;20310;-69
2022/08/16 06:33:40;;;;;;;0.10;0.10;;;;;;;;;;5068492;28;20262;-69
2022/08/16 06:36:07;;;;;;;0.00;0.00;;;;;;;;;;5059574;28;20433;-69
2022/08/16 06:38:34;;;;;;;0.00;0.00;;;;;;;;;;5069224;28;20214;-72
2022/08/16 06:41:02;;;;;;;0.00;0.00;;;;;;;;;;5059124;28;20235;-69
2022/08/16 06:43:28;;;;;;;0.00;0.00;;;;;;;;;;5070069;28;20239;-70
2022/08/16 06:45:55;;;;;;;0.00;0.00;;;;;;;;;;5057955;28;20241;-70
2022/08/16 06:48:21;;;;;;;0.00;0.00;;;;;;;;;;5070811;28;20282;-69
2022/08/16 06:50:51;;;;;;;0.00;0.00;;;;;;;;;;5057203;28;20244;-70
2022/08/16 06:53:17;;;;;;;0.00;0.00;;;;;;;;;;5071315;28;20216;-70
2022/08/16 06:55:43;;;;;;;0.00;0.00;;;;;;;;;;5056442;28;20248;-70
2022/08/16 06:58:09;;;;;;;0.00;0.00;;;;;;;;;;5072310;28;20570;-70
2022/08/16 07:00:37;;;;;;;0.00;0.00;;;;;;;;;;5055873;28;20302;-69
2022/08/16 07:03:03;;;;;;;0.00;0.00;;;;;;;;;;5073099;28;20231;-69
2022/08/16 07:05:31;;;;;;;0.00;0.00;;;;;;;;;;5056899;28;20460;-71
2022/08/16 07:08:03;;;;;;;0.00;0.00;;;;;;;;;;5077180;28;20301;-70
2022/08/16 07:10:29;;;;;;;0.00;0.00;;;;;;;;;;5058585;28;20239;-70
2022/08/16 07:12:55;;;;;;;0.00;0.00;;;;;;;;;;5077741;28;20427;-70
2022/08/16 07:15:22;;;;;;;0.00;0.00;;;;;;;;;;5057558;28;20245;-69
2022/08/16 07:17:48;;;;;;;0.00;0.00;;;;;;;;;;5078873;28;20271;-70
2022/08/16 07:20:15;;;;;;;0.00;0.00;;;;;;;;;;5056482;28;20409;-70
2022/08/16 07:22:41;;;;;;;0.00;0.00;;;;;;;;;;5079469;28;20223;-69
2022/08/16 07:25:11;;;;;;;0.00;0.00;;;;;;;;;;5055227;28;20271;-70
2022/08/16 07:27:38;;;;;;;0.00;0.00;;;;;;;;;;5079866;28;20246;-74
2022/08/16 07:30:06;;;;;;;0.00;0.00;;;;;;;;;;5064738;28;20508;-74
2022/08/16 07:32:33;;;;;;;0.00;0.00;;;;;;;;;;5079929;28;20235;-74
2022/08/16 07:34:59;;;;;;;0.00;0.00;;;;;;;;;;5065139;28;20274;-74
2022/08/16 07:37:26;;;;;;;0.00;0.00;;;;;;;;;;5070305;28;20239;-75
2022/08/16 07:39:52;;;;;;;0.00;0.00;;;;;;;;;;5064884;28;20210;-74
2022/08/16 07:42:20;;;;;;;0.00;0.00;;;;;;;;;;5070532;28;20255;-74
2022/08/16 07:44:47;;;;;;;0.00;0.00;;;;;;;;;;5064912;28;20223;-74
2022/08/16 07:47:13;;;;;;;0.00;0.00;;;;;;;;;;5070109;28;20247;-75
2022/08/16 07:49:40;;;;;;;0.00;0.00;;;;;;;;;;5064929;28;20204;-74
2022/08/16 07:52:06;;;;;;;0.00;0.00;;;;;;;;;;5069977;28;20627;-74
2022/08/16 07:54:33;;;;;;;0.00;0.00;;;;;;;;;;5064969;28;20246;-73
2022/08/16 07:56:59;;;;;;;0.05;0.05;;;;;;;;;;5068944;28;20306;-74
2022/08/16 07:59:27;;;;;;;0.00;0.00;;;;;;;;;;5065730;28;20212;-74
2022/08/16 08:01:54;;;;;;;0.10;0.10;;;;;;;;;;5068344;28;20239;-74
2022/08/16 08:04:21;;;;;;;0.00;0.00;;;;;;;;;;5065728;28;20246;-75
2022/08/16 08:06:47;;;;;;;0.00;0.00;;;;;;;;;;5067343;28;20255;-74
2022/08/16 08:09:13;;;;;;;0.00;0.00;;;;;;;;;;5066091;28;20211;-74
2022/08/16 08:11:40;;;;;;;0.00;0.00;;;;;;;;;;5066100;28;20434;-73
2022/08/16 08:14:06;;;;;;;0.00;0.00;;;;;;;;;;5067606;28;20271;-74
2022/08/16 08:16:34;;;;;;;0.10;0.10;;;;;;;;;;5064459;28;20249;-73
2022/08/16 08:19:00;;;;;;;0.08;0.08;;;;;;;;;;5067910;28;20561;-73
2022/08/16 08:21:27;;;;;;;0.00;0.00;;;;;;;;;;5064204;28;20266;-74
2022/08/16 08:23:53;;;;;;;0.00;0.00;;;;;;;;;;5068972;28;20231;-73
2022/08/16 08:26:20;;;;;;;0.00;0.00;;;;;;;;;;5063313;28;20254;-74
2022/08/16 08:28:47;;;;;;;0.00;0.00;;;;;;;;;;5069605;28;20476;-73
2022/08/16 08:31:14;;;;;;;0.00;0.00;;;;;;;;;;5062135;28;20239;-73
2022/08/16 08:33:42;;;;;;;0.00;0.00;;;;;;;;;;5070268;28;20203;-74
2022/08/16 08:36:13;;;;;;;0.00;0.00;;;;;;;;;;5061463;28;20270;-74
2022/08/16 08:38:40;;;;;;;0.00;0.00;;;;;;;;;;5070303;28;20272;-74
2022/08/16 08:41:07;;;;;;;0.00;0.00;;;;;;;;;;5061165;28;20314;-74
2022/08/16 08:43:34;;;;;;;0.00;0.00;;;;;;;;;;5070488;28;20223;-74
2022/08/16 08:46:00;;;;;;;0.00;0.00;;;;;;;;;;5060140;28;20246;-73
2022/08/16 08:48:27;;;;;;;0.00;0.00;;;;;;;;;;5071850;28;20212;-74
2022/08/16 08:50:55;;;;;;;0.00;0.00;;;;;;;;;;5057715;28;20239;-74
2022/08/16 08:53:25;;;;;;;0.00;0.00;;;;;;;;;;5073595;28;20220;-73
2022/08/16 08:55:52;;;;;;;0.00;0.00;;;;;;;;;;5058821;28;20334;-75
2022/08/16 08:58:18;;;;;;;0.00;0.00;;;;;;;;;;5061702;28;20214;-74
2022/08/16 09:00:45;;;;;;;0.00;0.00;;;;;;;;;;5058012;28;20262;-74
2022/08/16 09:03:13;;;;;;;0.00;0.00;;;;;;;;;;5073000;28;20200;-74
2022/08/16 09:05:39;;;;;;;0.00;0.00;;;;;;;;;;5057267;28;20580;-75
2022/08/16 09:08:07;;;;;;;0.00;0.00;;;;;;;;;;5074027;28;20447;-75
2022/08/16 09:10:34;;;;;;;0.00;0.00;;;;;;;;;;5055975;28;20249;-76
2022/08/16 09:13:01;;;;;;;0.00;0.00;;;;;;;;;;5074599;28;20454;-74
2022/08/16 09:15:28;;;;;;;0.00;0.00;;;;;;;;;;5055380;28;20211;-75
2022/08/16 09:17:55;;;;;;;0.00;0.00;;;;;;;;;;5075663;28;20192;-74
2022/08/16 09:20:22;;;;;;;0.00;0.00;;;;;;;;;;5055070;28;20240;-74
2022/08/16 09:22:49;;;;;;;0.10;0.10;;;;;;;;;;5076201;28;20188;-74
2022/08/16 09:25:16;;;;;;;0.00;0.00;;;;;;;;;;5053893;28;20208;-75
2022/08/16 09:27:43;;;;;;;0.00;0.00;;;;;;;;;;5061025;28;20280;-74
2022/08/16 09:30:10;;;;;;;0.00;0.00;;;;;;;;;;5053018;28;20386;-75
2022/08/16 09:32:36;;;;;;;0.00;0.00;;;;;;;;;;5077375;28;20322;-74
2022/08/16 09:35:03;;;;;;;0.00;0.00;;;;;;;;;;5062872;28;20208;-74
2022/08/16 09:37:31;;;;;;;0.00;0.00;;;;;;;;;;5051238;28;20212;-77
2022/08/16 09:39:58;;;;;;;0.00;0.00;;;;;;;;;;5062452;28;20238;-70
2022/08/16 09:42:25;;;;;;;0.00;0.00;;;;;;;;;;5067592;28;20302;-75
2022/08/16 09:44:52;;;;;;;0.00;0.00;;;;;;;;;;5062461;28;20452;-72
2022/08/16 09:47:18;;;;;;;0.00;0.00;;;;;;;;;;5067526;28;20262;-73
2022/08/16 09:49:45;;;;;;;0.00;0.00;;;;;;;;;;5062860;28;20354;-74
2022/08/16 09:52:11;;;;;;;0.00;0.00;;;;;;;;;;5067288;28;20230;-71
2022/08/16 09:54:39;;;;;;;0.00;0.00;;;;;;;;;;5062380;28;20490;-73
2022/08/16 09:57:07;;;;;;;0.00;0.00;;;;;;;;;;5067250;28;20420;-73
2022/08/16 09:59:35;;;;;;;0.00;0.00;;;;;;;;;;5062113;28;20254;-72
2022/08/16 10:02:01;;;;;;;0.00;0.00;;;;;;;;;;5066851;28;20447;-73
2022/08/16 10:04:28;;;;;;;0.00;0.00;;;;;;;;;;5062497;28;20267;-70
2022/08/16 10:06:55;;;;;;;0.00;0.00;;;;;;;;;;5065890;28;20247;-71
2022/08/16 10:09:23;;;;;;;0.00;0.00;;;;;;;;;;5063434;28;20211;-74
2022/08/16 10:14:35;;;;;;;0.00;0.00;;;;;;;;;;5062323;28;20556;-76
2022/08/16 10:17:03;;;;;;;0.00;0.00;;;;;;;;;;5068127;28;20467;-77
2022/08/16 10:19:31;;;;;;;0.00;0.00;;;;;;;;;;5064966;28;20303;-78
2022/08/16 10:21:57;;;;;;;0.00;0.00;;;;;;;;;;5068174;28;20623;-78
2022/08/16 10:24:24;;;;;;;0.00;0.00;;;;;;;;;;5065427;28;20208;-77
2022/08/16 10:26:51;;;;;;;0.00;0.00;;;;;;;;;;5065971;28;20239;-74
2022/08/16 10:29:18;;;;;;;0.00;0.00;;;;;;;;;;5067288;28;20214;-73
2022/08/16 10:31:46;;;;;;;0.00;0.00;;;;;;;;;;5065630;28;20239;-74
2022/08/16 10:34:13;;;;;;;0.00;0.00;;;;;;;;;;5070725;28;20534;-75
2022/08/16 10:36:48;;;;;;;0.00;0.00;;;;;;;;;;5064696;28;20243;-74
2022/08/16 10:39:15;;;;;;;0.00;0.00;;;;;;;;;;5065625;28;20204;-75
2022/08/16 10:41:49;;;;;;;0.00;0.00;;;;;;;;;;5069345;28;20246;-76
2022/08/16 10:44:24;;;;;;;0.00;0.00;;;;;;;;;;5068118;28;20392;-74
2022/08/16 10:46:52;;;;;;;0.00;0.00;;;;;;;;;;5068950;28;20474;-74
2022/08/16 10:49:19;;;;;;;0.00;0.00;;;;;;;;;;5067506;28;20297;-74
2022/08/16 10:52:00;;;;;;;0.00;0.00;;;;;;;;;;5068381;28;20249;-74
2022/08/16 10:54:27;;;;;;;0.00;0.00;;;;;;;;;;5063516;28;20276;-75
2022/08/16 10:56:54;;;;;;;0.00;0.00;;;;;;;;;;5069010;28;20296;-75
2022/08/16 10:59:28;;;;;;;0.00;0.00;;;;;;;;;;5067057;28;20279;-75
2022/08/16 11:01:56;;;;;;;0.00;0.00;;;;;;;;;;5069191;28;20247;-74
2022/08/16 11:04:26;;;;;;;0.00;0.00;;;;;;;;;;5066615;28;20211;-74
2022/08/16 11:06:53;;;;;;;0.00;0.00;;;;;;;;;;5068712;28;20239;-75
2022/08/16 11:09:20;;;;;;;0.00;0.00;;;;;;;;;;5066591;28;20215;-74
2022/08/16 11:11:46;;;;;;;0.00;0.00;;;;;;;;;;5068012;28;20503;-74
2022/08/16 11:14:13;;;;;;;0.00;0.00;;;;;;;;;;5067392;28;20248;-73
2022/08/16 11:16:45;;;;;;;0.00;0.00;;;;;;;;;;5067001;28;20238;-74
2022/08/16 11:19:15;;;;;;;0.00;0.00;;;;;;;;;;5067549;28;20215;-74
2022/08/16 11:21:42;;;;;;;0.00;0.00;;;;;;;;;;5066980;28;20305;-72
2022/08/16 11:24:11;;;;;;;0.00;0.00;;;;;;;;;;5068118;28;20200;-73
2022/08/16 11:26:38;;;;;;;0.00;0.00;;;;;;;;;;5056610;28;20234;-72
2022/08/16 11:29:06;;;;;;;0.00;0.00;;;;;;;;;;5068166;28;20200;-74
2022/08/16 11:31:33;;;;;;;0.00;0.00;;;;;;;;;;5065885;28;20636;-73
2022/08/16 11:33:59;;;;;;;0.00;0.00;;;;;;;;;;5068825;28;20247;-73
2022/08/16 11:36:28;;;;;;;0.00;0.00;;;;;;;;;;5065353;28;20239;-73
2022/08/16 11:38:54;;;;;;;0.00;0.00;;;;;;;;;;5069460;28;20380;-74
2022/08/16 11:41:21;;;;;;;0.00;0.00;;;;;;;;;;5064426;28;20259;-73
2022/08/16 11:43:47;;;;;;;0.00;0.00;;;;;;;;;;5070375;28;20502;-73
2022/08/16 11:46:15;;;;;;;0.00;0.00;;;;;;;;;;5063451;28;20561;-73
2022/08/16 11:48:44;;;;;;;0.00;0.00;;;;;;;;;;5071001;28;20203;-74
2022/08/16 11:51:11;;;;;;;0.00;0.00;;;;;;;;;;5061762;28;20293;-73
2022/08/16 11:53:39;;;;;;;0.00;0.00;;;;;;;;;;5071334;28;20224;-73
2022/08/16 11:56:05;;;;;;;0.00;0.00;;;;;;;;;;5062068;28;20259;-72
2022/08/16 11:58:32;;;;;;;0.00;0.00;;;;;;;;;;5071705;28;20212;-73
2022/08/16 12:00:59;;;;;;;0.00;0.00;;;;;;;;;;5060172;28;20243;-75
2022/08/16 12:03:26;;;;;;;0.00;0.00;;;;;;;;;;5073033;28;20200;-72
2022/08/16 12:05:53;;;;;;;0.00;0.00;;;;;;;;;;5059904;28;20246;-73
2022/08/16 12:08:20;;;;;;;0.00;0.00;;;;;;;;;;5072978;28;20388;-73
2022/08/16 12:10:48;;;;;;;0.00;0.00;;;;;;;;;;5059308;28;20273;-73
2022/08/16 12:13:15;;;;;;;0.00;0.00;;;;;;;;;;5073920;28;20251;-74
2022/08/16 12:15:41;;;;;;;0.00;0.00;;;;;;;;;;5058480;28;20235;-73
2022/08/16 12:18:08;;;;;;;0.00;0.00;;;;;;;;;;5074500;28;20255;-73
2022/08/16 12:20:37;;;;;;;0.00;0.00;;;;;;;;;;5057613;28;20239;-73
2022/08/16 12:23:04;;;;;;;0.00;0.00;;;;;;;;;;5074876;28;20206;-72
2022/08/16 12:25:31;;;;;;;0.00;0.00;;;;;;;;;;5057331;28;20247;-73
2022/08/16 12:27:59;;;;;;;0.00;0.00;;;;;;;;;;5075212;28;20271;-74
2022/08/16 12:30:27;;;;;;;0.00;0.00;;;;;;;;;;5056524;28;20247;-74
2022/08/16 12:32:54;;;;;;;0.00;0.00;;;;;;;;;;5062282;28;20535;-73
2022/08/16 12:35:21;;;;;;;0.00;0.00;;;;;;;;;;5055686;28;20267;-73
2022/08/16 12:37:48;;;;;;;0.00;0.00;;;;;;;;;;5076898;28;20384;-73
2022/08/16 12:40:16;;;;;;;0.00;0.00;;;;;;;;;;5054773;28;20204;-73
2022/08/16 12:42:42;;;;;;;0.00;0.00;;;;;;;;;;5077797;28;20202;-73
2022/08/16 12:45:13;;;;;;;0.00;0.00;;;;;;;;;;5054047;28;20204;-73
2022/08/16 12:50:23;;;;;;;0.00;0.00;;;;;;;;;;5055777;28;20551;-73
2022/08/16 12:52:51;;;;;;;0.00;0.00;;;;;;;;;;5076156;28;20496;-73
2022/08/16 12:55:18;;;;;;;0.00;0.00;;;;;;;;;;5054380;28;20208;-72
2022/08/16 12:57:44;;;;;;;0.00;0.00;;;;;;;;;;5076657;28;20438;-72
2022/08/16 13:00:15;;;;;;;0.00;0.00;;;;;;;;;;5053799;28;20271;-73
2022/08/16 13:02:42;;;;;;;0.00;0.00;;;;;;;;;;5076874;28;20201;-74
2022/08/16 13:05:10;;;;;;;0.00;0.00;;;;;;;;;;5053686;28;20449;-73
2022/08/16 13:07:36;;;;;;;0.00;0.00;;;;;;;;;;5077582;28;20235;-73
2022/08/16 13:10:08;;;;;;;0.00;0.00;;;;;;;;;;5062946;28;20204;-75
2022/08/16 13:12:37;;;;;;;0.00;0.00;;;;;;;;;;5051266;28;20216;-74
2022/08/16 13:15:04;;;;;;;0.00;0.00;;;;;;;;;;5062876;28;20527;-73
2022/08/16 13:17:31;;;;;;;0.00;0.00;;;;;;;;;;5050897;28;20286;-73
2022/08/16 13:19:58;;;;;;;0.00;0.00;;;;;;;;;;5063022;28;20234;-73
2022/08/16 13:22:25;;;;;;;0.00;0.00;;;;;;;;;;5067763;28;20258;-74
2022/08/16 13:24:51;;;;;;;0.03;0.03;;;;;;;;;;5062685;28;20218;-73
2022/08/16 13:27:18;;;;;;;0.00;0.00;;;;;;;;;;5067639;28;20250;-73
2022/08/16 13:29:44;;;;;;;0.00;0.00;;;;;;;;;;5062579;28;20232;-73
2022/08/16 13:32:11;;;;;;;0.00;0.00;;;;;;;;;;5067812;28;20239;-74
2022/08/16 13:34:39;;;;;;;0.00;0.00;;;;;;;;;;5062774;28;20503;-73
2022/08/16 13:37:06;;;;;;;0.00;0.00;;;;;;;;;;5067455;28;20541;-74
2022/08/16 13:39:32;;;;;;;0.00;0.00;;;;;;;;;;5062580;28;20372;-75
2022/08/16 13:42:01;;;;;;;0.00;0.00;;;;;;;;;;5066731;28;20262;-74
2022/08/16 13:44:27;;;;;;;0.00;0.00;;;;;;;;;;5062741;28;20475;-74
2022/08/16 13:46:55;;;;;;;0.00;0.00;;;;;;;;;;5066063;28;20366;-74
2022/08/16 13:49:22;;;;;;;0.00;0.00;;;;;;;;;;5063369;28;20211;-74
2022/08/16 13:51:49;;;;;;;0.00;0.00;;;;;;;;;;5065119;28;20239;-74
2022/08/16 13:54:16;;;;;;;0.00;0.00;;;;;;;;;;5064101;28;20238;-74
2022/08/16 13:56:42;;;;;;;0.00;0.00;;;;;;;;;;5064272;28;20281;-75
2022/08/16 13:59:10;;;;;;;0.00;0.00;;;;;;;;;;5064763;28;20204;-74
2022/08/16 14:01:36;;;;;;;0.00;0.00;;;;;;;;;;5063582;28;20477;-74
2022/08/16 14:04:04;;;;;;;0.00;0.00;;;;;;;;;;5065384;28;20200;-73
2022/08/16 14:06:30;;;;;;;0.00;0.00;;;;;;;;;;5062611;28;20253;-73
2022/08/16 14:08:58;;;;;;;0.00;0.00;;;;;;;;;;5066303;28;20376;-74
2022/08/16 14:11:25;;;;;;;0.00;0.00;;;;;;;;;;5061769;28;20471;-74
2022/08/16 14:13:51;;;;;;;0.00;0.00;;;;;;;;;;5066728;28;20461;-74
2022/08/16 14:16:18;;;;;;;0.00;0.00;;;;;;;;;;5060787;28;20320;-74
2022/08/16 14:18:44;;;;;;;0.00;0.00;;;;;;;;;;5067888;28;20204;-74
2022/08/16 14:21:11;;;;;;;0.00;0.00;;;;;;;;;;5059932;28;20437;-73
2022/08/16 14:23:37;;;;;;;0.00;0.00;;;;;;;;;;5068501;28;20444;-74
2022/08/16 14:26:06;;;;;;;0.00;0.00;;;;;;;;;;5058947;28;20262;-74
2022/08/16 14:28:33;;;;;;;0.00;0.00;;;;;;;;;;5069263;28;20265;-69
2022/08/16 14:30:59;;;;;;;0.00;0.00;;;;;;;;;;5058095;28;20397;-71
2022/08/16 14:33:25;;;;;;;0.00;0.00;;;;;;;;;;5069733;28;20274;-70
2022/08/16 14:35:51;;;;;;;0.00;0.00;;;;;;;;;;5057204;28;20317;-67
2022/08/16 14:38:20;;;;;;;0.00;0.00;;;;;;;;;;5070972;28;20417;-69
2022/08/16 14:40:46;;;;;;;0.00;0.00;;;;;;;;;;5056492;28;20284;-67
2022/08/16 14:43:14;;;;;;;0.00;0.00;;;;;;;;;;5071579;28;20212;-66
2022/08/16 14:45:40;;;;;;;0.00;0.00;;;;;;;;;;5055966;28;20302;-67
2022/08/16 14:48:06;;;;;;;0.00;0.00;;;;;;;;;;5072463;28;20211;-67